Latest Coastal Weather Observations for Bougainville Reef

IDQ60701

Issued at 6:35 pm EST Saturday 31 January 2015 (issued every 10 minutes, with the page automatically refreshed every 10 minutes)

About coastal observations | Map of coastal stations | Coastal observations for QLD | Marine services | Other Formats
Station Details ID: 200840 Name: BOUGAINVILLE REEF Lat: -15.49 Lon: 147.12 Height: 0.0 m
Data from the previous 72 hours. | See also: Recent months for locations in Queensland
Date/Time
EST
Temp

°C
Wind Pressure Rain
since 9am
mm
Weather Cloud Vis
km
Sea
Height
m
Swell
Dir
 
Speed
knots
Gust
knots
hPa Trend Height
m
Period
s
Dir
31/06:30pm 29.1 SE 9 11 1005.9 - - - - - - - - -
31/06:00pm 28.9 SSE 8 10 1005.5 - - - - - - - - -
31/05:30pm 28.9 SSE 10 12 1005.4 - - - - - - - - -
31/05:00pm 28.7 SSE 10 12 1004.9 - - - - - - - - -
31/04:30pm 28.7 SE 9 10 1004.5 - - - - - - - - -
31/04:00pm 28.7 SE 9 11 1004.8 - - - - - - - - -
31/03:30pm 28.5 SE 9 11 1005.0 - - - - - - - - -
31/03:00pm 28.6 SSE 9 11 1005.1 - - - - - - - - -
31/02:30pm 28.5 SSE 10 11 1005.5 - - - - - - - - -
31/02:00pm 28.5 S 11 14 1005.7 - - - - - - - - -
31/01:30pm 28.5 S 12 14 1005.8 - - - - - - - - -
31/01:00pm 28.6 S 11 14 1005.9 - - - - - - - - -
31/12:30pm 28.3 S 12 14 1006.1 - - - - - - - - -
31/12:00pm 28.5 S 10 12 1006.4 - - - - - - - - -
31/11:30am 28.4 S 10 12 1006.6 - - - - - - - - -
31/11:00am 28.4 SSW 10 13 1006.9 - - - - - - - - -
31/10:30am 28.1 SSW 10 11 1007.1 - - - - - - - - -
31/10:00am 28.2 SW 9 11 1007.1 - - - - - - - - -
31/09:30am 28.1 SW 8 9 1007.1 - - - - - - - - -
31/09:00am 28.0 SSW 5 7 1007.4 - - - - - - - - -
31/08:30am 28.0 SW 5 6 1007.7 - - - - - - - - -
31/08:00am 27.9 SSW 4 6 1007.7 - - - - - - - - -
31/07:30am 27.9 S 3 5 1007.6 - - - - - - - - -
31/07:00am 27.2 S 7 9 1007.0 - - - - - - - - -
31/06:30am 27.0 S 7 9 1006.5 - - - - - - - - -
31/06:00am 27.2 S 8 11 1006.8 - - - - - - - - -
31/05:30am 26.6 SSE 12 15 1006.6 - - - - - - - - -
31/05:00am 26.8 SSE 17 18 1005.8 - - - - - - - - -
31/04:30am 27.4 SSE 18 21 1005.7 - - - - - - - - -
31/04:19am 27.6 SSE 16 22 1005.7 - - - - - - - - -
31/04:00am 28.5 SSW 8 11 1005.7 - - - - - - - - -
31/03:30am 28.6 SSW 7 8 1005.5 - - - - - - - - -
31/03:00am 28.3 SSW 3 5 1005.3 - - - - - - - - -
31/02:30am 28.4 SSW 4 5 1005.3 - - - - - - - - -
31/02:00am 28.4 CALM 0 3 1005.7 - - - - - - - - -
31/01:30am 28.4 CALM 0 0 1006.0 - - - - - - - - -
31/01:00am 28.6 CALM 0 3 1006.5 - - - - - - - - -
31/12:30am 28.6 CALM 0 0 1006.6 - - - - - - - - -
31/12:00am 28.7 SSE 4 4 1006.6 - - - - - - - - -
 
Date/Time
EST
Temp

°C
Wind Pressure Rain
since 9am
mm
Weather Cloud Vis
km
Sea
Height
m
Swell
Dir
 
Speed
knots
Gust
knots
hPa Trend Height
m
Period
s
Dir
30/11:30pm 28.7 SE 4 5 1006.6 - - - - - - - - -
30/11:00pm 28.7 E 5 6 1006.8 - - - - - - - - -
30/10:30pm 28.7 E 5 5 1006.6 - - - - - - - - -
30/10:00pm 28.8 E 7 7 1006.3 - - - - - - - - -
30/09:30pm 28.8 E 9 10 1005.9 - - - - - - - - -
30/09:00pm 28.8 E 9 11 1005.8 - - - - - - - - -
30/08:30pm 29.0 E 9 10 1005.5 - - - - - - - - -
30/08:00pm 28.9 ESE 9 10 1005.1 - - - - - - - - -
30/07:30pm 29.0 ESE 8 9 1004.9 - - - - - - - - -
30/07:00pm 29.2 SE 6 6 1004.7 - - - - - - - - -
30/06:30pm 29.3 SSE 6 8 1004.5 - - - - - - - - -
30/06:00pm 29.3 S 7 9 1004.2 - - - - - - - - -
30/05:30pm 29.5 S 7 9 1004.1 - - - - - - - - -
30/05:00pm 29.5 S 9 10 1003.6 - - - - - - - - -
30/04:30pm 29.6 S 8 10 1003.5 - - - - - - - - -
30/04:00pm 29.5 S 9 10 1003.3 - - - - - - - - -
30/03:30pm 29.4 S 9 11 1003.4 - - - - - - - - -
30/03:00pm 29.3 S 6 9 1003.5 - - - - - - - - -
30/02:30pm 29.3 S 7 9 1003.6 - - - - - - - - -
30/02:00pm 29.2 SW 6 7 1004.0 - - - - - - - - -
30/01:30pm 29.1 WSW 4 5 1004.3 - - - - - - - - -
30/01:00pm 29.0 WSW 5 5 1004.6 - - - - - - - - -
30/12:30pm 29.0 W 6 7 1004.8 - - - - - - - - -
30/12:00pm 28.9 WNW 8 8 1005.2 - - - - - - - - -
30/11:30am 29.0 WNW 8 9 1005.4 - - - - - - - - -
30/11:00am 28.9 WNW 8 10 1005.8 - - - - - - - - -
30/10:30am 28.7 WNW 9 10 1005.9 - - - - - - - - -
30/10:00am 28.8 WNW 10 11 1006.0 - - - - - - - - -
30/09:30am 28.8 WNW 10 11 1005.9 - - - - - - - - -
30/09:00am 28.6 WNW 10 11 1006.0 - - - - - - - - -
30/08:30am 28.7 NW 11 13 1006.0 - - - - - - - - -
30/08:00am 28.7 WNW 13 14 1005.6 - - - - - - - - -
30/07:30am 28.7 WNW 12 14 1005.5 - - - - - - - - -
30/07:00am 28.7 WNW 12 14 1005.4 - - - - - - - - -
30/06:30am 28.4 WNW 15 16 1005.2 - - - - - - - - -
30/06:00am 28.5 NW 16 17 1004.5 - - - - - - - - -
30/05:30am 28.4 WNW 16 17 1004.3 - - - - - - - - -
30/05:00am 28.4 WNW 16 18 1004.1 - - - - - - - - -
30/04:30am 28.5 WNW 16 18 1004.0 - - - - - - - - -
30/04:00am 28.5 WNW 16 19 1004.1 - - - - - - - - -
30/03:30am 28.4 WNW 16 18 1004.1 - - - - - - - - -
30/03:00am 28.8 WNW 16 18 1004.0 - - - - - - - - -
30/02:30am 28.3 WNW 16 19 1004.2 - - - - - - - - -
30/02:00am 28.7 NW 16 18 1004.6 - - - - - - - - -
30/01:30am 28.5 NW 14 16 1004.7 - - - - - - - - -
30/01:00am 28.5 NW 15 17 1004.8 - - - - - - - - -
30/12:30am 28.5 NW 14 16 1004.9 - - - - - - - - -
30/12:00am 28.6 NW 14 16 1005.4 - - - - - - - - -
 
Date/Time
EST
Temp

°C
Wind Pressure Rain
since 9am
mm
Weather Cloud Vis
km
Sea
Height
m
Swell
Dir
 
Speed
knots
Gust
knots
hPa Trend Height
m
Period
s
Dir
29/11:30pm 28.8 NNW 12 15 1005.5 - - - - - - - - -
29/11:00pm 28.6 NW 13 15 1005.7 - - - - - - - - -
29/10:30pm 28.7 NW 13 16 1005.6 - - - - - - - - -
29/10:00pm 28.7 NW 14 15 1005.2 - - - - - - - - -
29/09:30pm 28.7 NW 14 16 1004.9 - - - - - - - - -
29/09:00pm 28.9 NW 13 14 1004.6 - - - - - - - - -
29/08:30pm 28.7 NW 14 16 1004.5 - - - - - - - - -
29/08:00pm 28.9 WNW 13 14 1004.0 - - - - - - - - -
29/07:30pm 28.8 WNW 14 16 1003.8 - - - - - - - - -
29/07:00pm 28.8 WNW 14 16 1003.2 - - - - - - - - -
29/06:30pm 29.1 WNW 15 17 1003.1 - - - - - - - - -
29/06:00pm 29.4 NW 18 19 1002.6 - - - - - - - - -
29/05:30pm 29.4 NW 18 20 1002.3 - - - - - - - - -
29/05:00pm 29.2 NW 18 19 1002.2 - - - - - - - - -
29/04:30pm 29.0 NW 19 21 1002.1 - - - - - - - - -
29/04:00pm 29.3 NW 20 23 1002.1 - - - - - - - - -
29/03:30pm 29.1 NW 21 24 1002.1 - - - - - - - - -
29/03:00pm 28.9 NW 19 22 1002.5 - - - - - - - - -
29/02:30pm 28.8 NW 20 24 1002.5 - - - - - - - - -
29/02:00pm 28.5 WNW 23 25 1002.8 - - - - - - - - -
29/01:30pm 29.0 WNW 22 25 1003.0 - - - - - - - - -
29/01:00pm 28.7 NW 22 25 1003.2 - - - - - - - - -
29/12:30pm 28.9 NW 22 25 1003.3 - - - - - - - - -
29/12:00pm 28.8 WNW 20 25 1003.7 - - - - - - - - -
29/11:30am 28.7 NW 21 25 1003.7 - - - - - - - - -
29/11:00am 28.7 NW 21 25 1003.8 - - - - - - - - -
29/10:30am 29.0 NW 20 24 1003.7 - - - - - - - - -
29/10:00am 28.8 NW 21 24 1003.7 - - - - - - - - -
29/09:30am 28.7 WNW 21 23 1003.7 - - - - - - - - -
29/09:00am 29.1 WNW 20 23 1003.4 - - - - - - - - -
29/08:30am 28.7 WNW 20 23 1003.6 - - - - - - - - -
29/08:00am 28.8 WNW 19 22 1003.2 - - - - - - - - -
29/07:30am 28.5 NW 20 23 1003.0 - - - - - - - - -
29/07:00am 28.7 NW 20 23 1002.7 - - - - - - - - -
29/06:30am 28.5 NW 20 24 1002.6 - - - - - - - - -
29/06:00am 28.5 NW 21 24 1001.9 - - - - - - - - -
29/05:30am 28.4 NW 19 23 1001.8 - - - - - - - - -
29/05:00am 28.6 NW 19 22 1001.7 - - - - - - - - -
29/04:30am 28.7 NW 18 22 1001.6 - - - - - - - - -
29/04:00am 28.3 NW 19 22 1001.6 - - - - - - - - -
29/03:30am 28.5 NW 22 24 1001.7 - - - - - - - - -
29/03:00am 28.6 NW 22 25 1001.7 - - - - - - - - -
29/02:30am 28.3 NW 23 28 1001.8 - - - - - - - - -
29/02:00am 28.5 NW 23 27 1002.1 - - - - - - - - -
29/01:30am 28.3 NW 23 28 1002.2 - - - - - - - - -
29/01:00am 28.7 NW 22 24 1002.5 - - - - - - - - -
29/12:30am 28.7 NW 20 24 1002.6 - - - - - - - - -
29/12:00am 28.7 NW 20 23 1003.2 - - - - - - - - -
 
Date/Time
EST
Temp

°C
Wind Pressure Rain
since 9am
mm
Weather Cloud Vis
km
Sea
Height
m
Swell
Dir
 
Speed
knots
Gust
knots
hPa Trend Height
m
Period
s
Dir
28/11:30pm 28.7 NNW 21 25 1003.6 - - - - - - - - -
28/11:00pm 28.8 NNW 20 23 1003.5 - - - - - - - - -
28/10:30pm 28.8 NW 20 23 1003.4 - - - - - - - - -
28/10:00pm 28.8 NNW 19 23 1003.4 - - - - - - - - -
28/09:30pm 28.8 NW 19 21 1003.2 - - - - - - - - -
28/09:00pm 28.7 NNW 18 20 1003.0 - - - - - - - - -
28/08:30pm 28.8 NW 18 20 1002.7 - - - - - - - - -
28/08:00pm 28.6 NW 17 19 1002.2 - - - - - - - - -
28/07:30pm 28.8 NW 17 19 1002.1 - - - - - - - - -
28/07:00pm 28.9 NW 17 19 1001.4 - - - - - - - - -

Other Formats:

Comma delimited format used in spreadsheet applications
http://www.bom.gov.au/fwo/IDQ60701/IDQ60701.95288.axf

JavaScript Object Notation format (JSON) in row-major order
http://www.bom.gov.au/fwo/IDQ60701/IDQ60701.95288.json